sensor_id;sensor_type;location;lat;lon;timestamp;pressure;altitude;pressure_sealevel;temperature;humidity
56737;BME280;42618;51.226;4.910;2023-07-31T00:01:21;49701.09;;;-146.94;100.00
56737;BME280;42618;51.226;4.910;2023-07-31T00:03:49;49671.19;;;-146.94;100.00
56737;BME280;42618;51.226;4.910;2023-07-31T00:06:16;49685.13;;;-146.94;100.00
56737;BME280;42618;51.226;4.910;2023-07-31T00:08:42;49689.13;;;-146.94;100.00
56737;BME280;42618;51.226;4.910;2023-07-31T00:11:09;49675.19;;;-146.94;100.00
56737;BME280;42618;51.226;4.910;2023-07-31T00:13:36;49679.16;;;-146.94;100.00
56737;BME280;42618;51.226;4.910;2023-07-31T00:16:03;49705.06;;;-146.94;100.00
56737;BME280;42618;51.226;4.910;2023-07-31T00:18:29;49727.00;;;-146.94;100.00
56737;BME280;42618;51.226;4.910;2023-07-31T00:20:56;49717.03;;;-146.94;100.00
56737;BME280;42618;51.226;4.910;2023-07-31T00:23:23;49717.03;;;-146.94;100.00
56737;BME280;42618;51.226;4.910;2023-07-31T00:25:49;49667.19;;;-146.94;100.00
56737;BME280;42618;51.226;4.910;2023-07-31T00:28:16;49695.09;;;-146.94;100.00
56737;BME280;42618;51.226;4.910;2023-07-31T00:30:43;49675.19;;;-146.94;100.00
56737;BME280;42618;51.226;4.910;2023-07-31T00:33:10;49707.06;;;-146.94;100.00
56737;BME280;42618;51.226;4.910;2023-07-31T00:35:37;49681.16;;;-146.94;100.00
56737;BME280;42618;51.226;4.910;2023-07-31T00:38:03;49655.25;;;-146.94;100.00
56737;BME280;42618;51.226;4.910;2023-07-31T00:40:35;49723.03;;;-146.94;100.00
56737;BME280;42618;51.226;4.910;2023-07-31T00:43:03;49705.06;;;-146.94;99.84
56737;BME280;42618;51.226;4.910;2023-07-31T00:45:30;49709.06;;;-146.94;100.00
56737;BME280;42618;51.226;4.910;2023-07-31T00:47:58;49707.06;;;-146.94;99.37
56737;BME280;42618;51.226;4.910;2023-07-31T00:50:25;49681.16;;;-146.94;99.57
56737;BME280;42618;51.226;4.910;2023-07-31T00:52:53;49717.03;;;-146.94;99.25
56737;BME280;42618;51.226;4.910;2023-07-31T00:55:20;49707.06;;;-146.94;98.93
56737;BME280;42618;51.226;4.910;2023-07-31T00:57:48;49663.22;;;-146.94;99.22
56737;BME280;42618;51.226;4.910;2023-07-31T01:00:17;49675.19;;;-146.94;98.70
56737;BME280;42618;51.226;4.910;2023-07-31T01:02:44;49661.22;;;-146.94;98.79
56737;BME280;42618;51.226;4.910;2023-07-31T01:05:12;49699.09;;;-146.94;98.44
56737;BME280;42618;51.226;4.910;2023-07-31T01:07:48;49703.09;;;-146.94;98.52
56737;BME280;42618;51.226;4.910;2023-07-31T01:10:21;49663.22;;;-146.94;98.34
56737;BME280;42618;51.226;4.910;2023-07-31T01:12:51;49677.16;;;-146.94;98.03
56737;BME280;42618;51.226;4.910;2023-07-31T01:15:17;49703.09;;;-146.94;98.32
56737;BME280;42618;51.226;4.910;2023-07-31T01:17:44;49705.06;;;-146.94;97.73
56737;BME280;42618;51.226;4.910;2023-07-31T01:20:21;49715.03;;;-146.94;97.53
56737;BME280;42618;51.226;4.910;2023-07-31T01:28:20;49707.06;;;-146.94;97.71
56737;BME280;42618;51.226;4.910;2023-07-31T01:30:50;49661.22;;;-146.94;97.83
56737;BME280;42618;51.226;4.910;2023-07-31T01:33:17;49713.06;;;-146.94;97.50
56737;BME280;42618;51.226;4.910;2023-07-31T01:35:46;49683.16;;;-146.94;97.55
56737;BME280;42618;51.226;4.910;2023-07-31T01:38:15;49669.19;;;-146.94;97.75
56737;BME280;42618;51.226;4.910;2023-07-31T01:40:42;49687.13;;;-146.94;96.98
56737;BME280;42618;51.226;4.910;2023-07-31T01:43:09;49691.13;;;-146.94;96.74
56737;BME280;42618;51.226;4.910;2023-07-31T01:45:36;49693.13;;;-146.94;97.73
56737;BME280;42618;51.226;4.910;2023-07-31T01:48:02;49671.19;;;-146.94;97.18
56737;BME280;42618;51.226;4.910;2023-07-31T01:50:29;49665.22;;;-146.94;97.27
56737;BME280;42618;51.226;4.910;2023-07-31T01:52:57;49689.13;;;-146.94;97.28
56737;BME280;42618;51.226;4.910;2023-07-31T01:55:23;49695.09;;;-146.94;96.44
56737;BME280;42618;51.226;4.910;2023-07-31T01:57:50;49675.19;;;-146.94;96.46
56737;BME280;42618;51.226;4.910;2023-07-31T02:00:18;49701.09;;;-146.94;97.43
56737;BME280;42618;51.226;4.910;2023-07-31T02:02:45;49659.22;;;-146.94;97.58
56737;BME280;42618;51.226;4.910;2023-07-31T02:05:12;49685.13;;;-146.94;97.48
56737;BME280;42618;51.226;4.910;2023-07-31T02:07:39;49725.00;;;-146.94;97.19
56737;BME280;42618;51.226;4.910;2023-07-31T02:10:06;49685.13;;;-146.94;99.35
56737;BME280;42618;51.226;4.910;2023-07-31T02:12:34;49725.00;;;-146.94;98.78
56737;BME280;42618;51.226;4.910;2023-07-31T02:15:01;49721.03;;;-146.94;98.35
56737;BME280;42618;51.226;4.910;2023-07-31T02:17:29;49665.22;;;-146.94;98.81
56737;BME280;42618;51.226;4.910;2023-07-31T02:19:56;49689.13;;;-146.94;98.62
56737;BME280;42618;51.226;4.910;2023-07-31T02:22:23;49671.19;;;-146.94;98.82
56737;BME280;42618;51.226;4.910;2023-07-31T02:24:50;49653.25;;;-146.94;99.29
56737;BME280;42618;51.226;4.910;2023-07-31T02:27:17;49687.13;;;-146.94;99.11
56737;BME280;42618;51.226;4.910;2023-07-31T02:29:44;49665.22;;;-146.94;99.20
56737;BME280;42618;51.226;4.910;2023-07-31T02:32:11;49693.13;;;-146.94;98.57
56737;BME280;42618;51.226;4.910;2023-07-31T02:34:39;49687.13;;;-146.94;97.81
56737;BME280;42618;51.226;4.910;2023-07-31T02:37:06;49681.16;;;-146.94;98.42
56737;BME280;42618;51.226;4.910;2023-07-31T02:39:32;49677.16;;;-146.94;98.57
56737;BME280;42618;51.226;4.910;2023-07-31T02:41:59;49687.13;;;-146.94;98.33
56737;BME280;42618;51.226;4.910;2023-07-31T02:44:27;49701.09;;;-146.94;98.73
56737;BME280;42618;51.226;4.910;2023-07-31T02:46:53;49705.06;;;-146.94;99.13
56737;BME280;42618;51.226;4.910;2023-07-31T02:49:20;49665.22;;;-146.94;98.76
56737;BME280;42618;51.226;4.910;2023-07-31T02:51:47;49701.09;;;-146.94;99.07
56737;BME280;42618;51.226;4.910;2023-07-31T02:54:14;49709.06;;;-146.94;99.49
56737;BME280;42618;51.226;4.910;2023-07-31T02:56:40;49697.09;;;-146.94;99.95
56737;BME280;42618;51.226;4.910;2023-07-31T02:59:08;49685.13;;;-146.94;100.00
56737;BME280;42618;51.226;4.910;2023-07-31T03:01:34;49679.16;;;-146.94;100.00
56737;BME280;42618;51.226;4.910;2023-07-31T03:04:02;49675.19;;;-146.94;99.99
56737;BME280;42618;51.226;4.910;2023-07-31T03:06:28;49691.13;;;-146.94;100.00
56737;BME280;42618;51.226;4.910;2023-07-31T03:08:55;49687.13;;;-146.94;99.62
56737;BME280;42618;51.226;4.910;2023-07-31T03:11:22;49701.09;;;-146.94;100.00
56737;BME280;42618;51.226;4.910;2023-07-31T03:13:48;49663.22;;;-146.94;99.86
56737;BME280;42618;51.226;4.910;2023-07-31T03:16:15;49715.03;;;-146.94;99.42
56737;BME280;42618;51.226;4.910;2023-07-31T03:18:42;49661.22;;;-146.94;99.46
56737;BME280;42618;51.226;4.910;2023-07-31T03:21:09;49659.22;;;-146.94;100.00
56737;BME280;42618;51.226;4.910;2023-07-31T03:23:35;49715.03;;;-146.94;100.00
56737;BME280;42618;51.226;4.910;2023-07-31T03:26:06;49697.09;;;-146.94;100.00
56737;BME280;42618;51.226;4.910;2023-07-31T03:28:33;49675.19;;;-146.94;99.44
56737;BME280;42618;51.226;4.910;2023-07-31T03:31:00;49707.06;;;-146.94;99.43
56737;BME280;42618;51.226;4.910;2023-07-31T03:33:27;49671.19;;;-146.94;99.58
56737;BME280;42618;51.226;4.910;2023-07-31T03:35:54;49643.28;;;-146.94;99.49
56737;BME280;42618;51.226;4.910;2023-07-31T03:38:20;49687.13;;;-146.94;99.23
56737;BME280;42618;51.226;4.910;2023-07-31T03:40:47;49637.28;;;-146.94;99.66
56737;BME280;42618;51.226;4.910;2023-07-31T03:43:15;49721.03;;;-146.94;99.86
56737;BME280;42618;51.226;4.910;2023-07-31T03:45:41;49679.16;;;-146.94;98.92
56737;BME280;42618;51.226;4.910;2023-07-31T03:48:09;49693.13;;;-146.94;98.73
56737;BME280;42618;51.226;4.910;2023-07-31T03:50:35;49675.19;;;-146.94;99.00
56737;BME280;42618;51.226;4.910;2023-07-31T03:53:02;49699.09;;;-146.94;99.22
56737;BME280;42618;51.226;4.910;2023-07-31T03:55:29;49695.09;;;-146.94;100.00
56737;BME280;42618;51.226;4.910;2023-07-31T03:57:55;49677.16;;;-146.94;99.42
56737;BME280;42618;51.226;4.910;2023-07-31T04:00:22;49719.03;;;-146.94;100.00
56737;BME280;42618;51.226;4.910;2023-07-31T04:02:49;49701.09;;;-146.94;100.00
56737;BME280;42618;51.226;4.910;2023-07-31T04:05:16;49679.16;;;-146.94;100.00
56737;BME280;42618;51.226;4.910;2023-07-31T04:07:43;49691.13;;;-146.94;100.00
56737;BME280;42618;51.226;4.910;2023-07-31T04:10:10;49671.19;;;-146.94;100.00
56737;BME280;42618;51.226;4.910;2023-07-31T04:12:39;49683.16;;;-146.94;100.00
56737;BME280;42618;51.226;4.910;2023-07-31T04:15:06;49677.16;;;-146.94;100.00
56737;BME280;42618;51.226;4.910;2023-07-31T04:17:33;49703.09;;;-146.94;100.00
56737;BME280;42618;51.226;4.910;2023-07-31T04:20:00;49717.03;;;-146.94;100.00
56737;BME280;42618;51.226;4.910;2023-07-31T04:22:27;49679.16;;;-146.94;100.00
56737;BME280;42618;51.226;4.910;2023-07-31T04:24:53;49679.16;;;-146.94;100.00
56737;BME280;42618;51.226;4.910;2023-07-31T04:27:20;49671.19;;;-146.94;100.00
56737;BME280;42618;51.226;4.910;2023-07-31T04:29:47;49697.09;;;-146.94;100.00
56737;BME280;42618;51.226;4.910;2023-07-31T04:32:14;49677.16;;;-146.94;100.00
56737;BME280;42618;51.226;4.910;2023-07-31T04:34:43;49717.03;;;-146.94;100.00
56737;BME280;42618;51.226;4.910;2023-07-31T04:37:10;49683.16;;;-146.94;100.00
56737;BME280;42618;51.226;4.910;2023-07-31T04:39:36;49715.03;;;-146.94;100.00
56737;BME280;42618;51.226;4.910;2023-07-31T04:42:03;49691.13;;;-146.94;100.00
56737;BME280;42618;51.226;4.910;2023-07-31T04:44:30;49711.06;;;-146.94;100.00
56737;BME280;42618;51.226;4.910;2023-07-31T04:46:57;49707.06;;;-146.94;100.00
56737;BME280;42618;51.226;4.910;2023-07-31T04:49:24;49663.22;;;-146.94;100.00
56737;BME280;42618;51.226;4.910;2023-07-31T04:51:50;49679.16;;;-146.94;100.00
56737;BME280;42618;51.226;4.910;2023-07-31T04:54:17;49641.28;;;-146.94;100.00
56737;BME280;42618;51.226;4.910;2023-07-31T04:56:44;49709.06;;;-146.94;100.00
56737;BME280;42618;51.226;4.910;2023-07-31T04:59:10;49705.06;;;-146.94;100.00
56737;BME280;42618;51.226;4.910;2023-07-31T05:01:37;49709.06;;;-146.94;100.00
56737;BME280;42618;51.226;4.910;2023-07-31T05:04:04;49687.13;;;-146.94;100.00
56737;BME280;42618;51.226;4.910;2023-07-31T05:06:31;49693.13;;;-146.94;100.00
56737;BME280;42618;51.226;4.910;2023-07-31T05:08:57;49719.03;;;-146.94;100.00
56737;BME280;42618;51.226;4.910;2023-07-31T05:11:24;49707.06;;;-146.94;100.00
56737;BME280;42618;51.226;4.910;2023-07-31T05:13:51;49703.09;;;-146.94;100.00
56737;BME280;42618;51.226;4.910;2023-07-31T05:16:17;49713.06;;;-146.94;100.00
56737;BME280;42618;51.226;4.910;2023-07-31T05:18:44;49695.09;;;-146.94;100.00
56737;BME280;42618;51.226;4.910;2023-07-31T05:21:11;49693.13;;;-146.94;100.00
56737;BME280;42618;51.226;4.910;2023-07-31T05:23:38;49725.00;;;-146.94;100.00
56737;BME280;42618;51.226;4.910;2023-07-31T05:26:05;49685.13;;;-146.94;100.00
56737;BME280;42618;51.226;4.910;2023-07-31T05:28:34;49687.13;;;-146.94;100.00
56737;BME280;42618;51.226;4.910;2023-07-31T05:31:02;49689.13;;;-146.94;100.00
56737;BME280;42618;51.226;4.910;2023-07-31T05:33:29;49695.09;;;-146.94;100.00
56737;BME280;42618;51.226;4.910;2023-07-31T05:35:56;49679.16;;;-146.94;100.00
56737;BME280;42618;51.226;4.910;2023-07-31T05:38:23;49697.09;;;-146.94;100.00
56737;BME280;42618;51.226;4.910;2023-07-31T05:40:50;49703.09;;;-146.94;100.00
56737;BME280;42618;51.226;4.910;2023-07-31T05:43:17;49679.16;;;-146.94;100.00
56737;BME280;42618;51.226;4.910;2023-07-31T05:45:43;49667.19;;;-146.94;100.00
56737;BME280;42618;51.226;4.910;2023-07-31T05:48:10;49671.19;;;-146.94;100.00
56737;BME280;42618;51.226;4.910;2023-07-31T05:50:37;49683.16;;;-146.94;100.00
56737;BME280;42618;51.226;4.910;2023-07-31T05:53:06;49687.13;;;-146.94;100.00
56737;BME280;42618;51.226;4.910;2023-07-31T05:55:33;49687.13;;;-146.94;100.00
56737;BME280;42618;51.226;4.910;2023-07-31T05:58:00;49736.97;;;-146.94;100.00
56737;BME280;42618;51.226;4.910;2023-07-31T06:00:27;49717.03;;;-146.94;100.00
56737;BME280;42618;51.226;4.910;2023-07-31T06:02:54;49703.09;;;-146.94;100.00
56737;BME280;42618;51.226;4.910;2023-07-31T06:05:21;49689.13;;;-146.94;100.00
56737;BME280;42618;51.226;4.910;2023-07-31T06:07:48;49729.00;;;-146.94;100.00
56737;BME280;42618;51.226;4.910;2023-07-31T06:10:14;49703.09;;;-146.94;100.00
56737;BME280;42618;51.226;4.910;2023-07-31T06:12:41;49683.16;;;-146.94;100.00
56737;BME280;42618;51.226;4.910;2023-07-31T06:15:08;49719.03;;;-146.94;100.00
56737;BME280;42618;51.226;4.910;2023-07-31T06:17:35;49665.22;;;-146.94;100.00
56737;BME280;42618;51.226;4.910;2023-07-31T06:20:02;49691.13;;;-146.94;100.00
56737;BME280;42618;51.226;4.910;2023-07-31T06:22:31;49721.03;;;-146.94;100.00
56737;BME280;42618;51.226;4.910;2023-07-31T06:24:58;49707.06;;;-146.94;100.00
56737;BME280;42618;51.226;4.910;2023-07-31T06:27:25;49707.06;;;-146.94;100.00
56737;BME280;42618;51.226;4.910;2023-07-31T06:29:52;49683.16;;;-146.94;100.00
56737;BME280;42618;51.226;4.910;2023-07-31T06:32:18;49683.16;;;-146.94;100.00
56737;BME280;42618;51.226;4.910;2023-07-31T06:34:45;49663.22;;;-146.94;100.00
56737;BME280;42618;51.226;4.910;2023-07-31T06:37:12;49715.03;;;-146.94;100.00
56737;BME280;42618;51.226;4.910;2023-07-31T06:39:39;49727.00;;;-146.94;100.00
56737;BME280;42618;51.226;4.910;2023-07-31T06:42:06;49727.00;;;-146.94;100.00
56737;BME280;42618;51.226;4.910;2023-07-31T06:44:33;49691.13;;;-146.94;100.00
56737;BME280;42618;51.226;4.910;2023-07-31T06:47:00;49695.09;;;-146.94;100.00
56737;BME280;42618;51.226;4.910;2023-07-31T06:49:27;49701.09;;;-146.94;100.00
56737;BME280;42618;51.226;4.910;2023-07-31T06:51:53;49665.22;;;-146.94;100.00
56737;BME280;42618;51.226;4.910;2023-07-31T06:54:20;49703.09;;;-146.94;100.00
56737;BME280;42618;51.226;4.910;2023-07-31T06:56:47;49671.19;;;-146.94;100.00
56737;BME280;42618;51.226;4.910;2023-07-31T06:59:13;49699.09;;;-146.94;100.00
56737;BME280;42618;51.226;4.910;2023-07-31T07:01:40;49713.06;;;-146.94;100.00
56737;BME280;42618;51.226;4.910;2023-07-31T07:04:07;49677.16;;;-146.94;100.00
56737;BME280;42618;51.226;4.910;2023-07-31T07:06:34;49679.16;;;-146.94;100.00
56737;BME280;42618;51.226;4.910;2023-07-31T07:09:01;49691.13;;;-146.94;100.00
56737;BME280;42618;51.226;4.910;2023-07-31T07:11:27;49717.03;;;-146.94;100.00
56737;BME280;42618;51.226;4.910;2023-07-31T07:13:54;49637.28;;;-146.94;100.00
56737;BME280;42618;51.226;4.910;2023-07-31T07:16:21;49721.03;;;-146.94;100.00
56737;BME280;42618;51.226;4.910;2023-07-31T07:18:47;49693.13;;;-146.94;100.00
56737;BME280;42618;51.226;4.910;2023-07-31T07:21:29;49713.06;;;-146.94;100.00
56737;BME280;42618;51.226;4.910;2023-07-31T07:23:56;49705.06;;;-146.94;100.00
56737;BME280;42618;51.226;4.910;2023-07-31T07:26:23;49705.06;;;-146.94;100.00
56737;BME280;42618;51.226;4.910;2023-07-31T07:28:50;49639.28;;;-146.94;100.00
56737;BME280;42618;51.226;4.910;2023-07-31T07:31:17;49663.22;;;-146.94;100.00
56737;BME280;42618;51.226;4.910;2023-07-31T07:33:43;49707.06;;;-146.94;100.00
56737;BME280;42618;51.226;4.910;2023-07-31T07:36:10;49721.03;;;-146.94;100.00
56737;BME280;42618;51.226;4.910;2023-07-31T07:38:39;49691.13;;;-146.94;100.00
56737;BME280;42618;51.226;4.910;2023-07-31T07:41:05;49679.16;;;-146.94;100.00
56737;BME280;42618;51.226;4.910;2023-07-31T07:43:32;49689.13;;;-146.94;100.00
56737;BME280;42618;51.226;4.910;2023-07-31T07:45:59;49681.16;;;-146.94;100.00
56737;BME280;42618;51.226;4.910;2023-07-31T07:48:26;49691.13;;;-146.94;100.00
56737;BME280;42618;51.226;4.910;2023-07-31T07:50:52;49655.25;;;-146.94;100.00
56737;BME280;42618;51.226;4.910;2023-07-31T07:53:19;49717.03;;;-146.94;100.00
56737;BME280;42618;51.226;4.910;2023-07-31T07:55:46;49697.09;;;-146.94;100.00
56737;BME280;42618;51.226;4.910;2023-07-31T07:58:13;49701.09;;;-146.94;100.00
56737;BME280;42618;51.226;4.910;2023-07-31T08:00:39;49693.13;;;-146.94;100.00
56737;BME280;42618;51.226;4.910;2023-07-31T08:03:06;49691.13;;;-146.94;100.00
56737;BME280;42618;51.226;4.910;2023-07-31T08:05:33;49671.19;;;-146.94;100.00
56737;BME280;42618;51.226;4.910;2023-07-31T08:08:01;49707.06;;;-146.94;100.00
56737;BME280;42618;51.226;4.910;2023-07-31T08:10:27;49715.03;;;-146.94;100.00
56737;BME280;42618;51.226;4.910;2023-07-31T08:12:54;49655.25;;;-146.94;100.00
56737;BME280;42618;51.226;4.910;2023-07-31T08:15:21;49711.06;;;-146.94;100.00
56737;BME280;42618;51.226;4.910;2023-07-31T08:17:47;49681.16;;;-146.94;100.00
56737;BME280;42618;51.226;4.910;2023-07-31T08:20:14;49715.03;;;-146.94;100.00
56737;BME280;42618;51.226;4.910;2023-07-31T08:22:41;49697.09;;;-146.94;100.00
56737;BME280;42618;51.226;4.910;2023-07-31T08:25:08;49699.09;;;-146.94;100.00
56737;BME280;42618;51.226;4.910;2023-07-31T08:27:35;49675.19;;;-146.94;100.00
56737;BME280;42618;51.226;4.910;2023-07-31T08:30:02;49657.22;;;-146.94;100.00
56737;BME280;42618;51.226;4.910;2023-07-31T08:32:29;49687.13;;;-146.94;100.00
56737;BME280;42618;51.226;4.910;2023-07-31T08:34:55;49681.16;;;-146.94;99.85
56737;BME280;42618;51.226;4.910;2023-07-31T08:37:22;49707.06;;;-146.94;100.00
56737;BME280;42618;51.226;4.910;2023-07-31T08:39:49;49679.16;;;-146.94;100.00
56737;BME280;42618;51.226;4.910;2023-07-31T08:42:15;49727.00;;;-146.94;100.00
56737;BME280;42618;51.226;4.910;2023-07-31T08:44:43;49689.13;;;-146.94;99.80
56737;BME280;42618;51.226;4.910;2023-07-31T08:47:11;49659.22;;;-146.94;98.73
56737;BME280;42618;51.226;4.910;2023-07-31T08:49:39;49667.19;;;-146.94;97.78
56737;BME280;42618;51.226;4.910;2023-07-31T08:52:06;49675.19;;;-146.94;96.91
56737;BME280;42618;51.226;4.910;2023-07-31T08:54:33;49707.06;;;-146.94;96.41
56737;BME280;42618;51.226;4.910;2023-07-31T08:57:00;49685.13;;;-146.94;95.74
56737;BME280;42618;51.226;4.910;2023-07-31T08:59:31;49709.06;;;-146.94;94.95
56737;BME280;42618;51.226;4.910;2023-07-31T09:02:04;49679.16;;;-146.94;94.95
56737;BME280;42618;51.226;4.910;2023-07-31T09:04:33;49669.19;;;-146.94;93.84
56737;BME280;42618;51.226;4.910;2023-07-31T09:07:03;49719.03;;;-146.94;93.80
56737;BME280;42618;51.226;4.910;2023-07-31T09:09:31;49681.16;;;-146.94;93.84
56737;BME280;42618;51.226;4.910;2023-07-31T09:11:58;49643.28;;;-146.94;92.02
56737;BME280;42618;51.226;4.910;2023-07-31T09:14:26;49651.25;;;-146.94;92.56
56737;BME280;42618;51.226;4.910;2023-07-31T09:16:58;49659.22;;;-146.94;92.53
56737;BME280;42618;51.226;4.910;2023-07-31T09:19:33;49651.25;;;-146.94;91.62
56737;BME280;42618;51.226;4.910;2023-07-31T09:22:00;49667.19;;;-146.94;90.11
56737;BME280;42618;51.226;4.910;2023-07-31T09:24:29;49639.28;;;-146.94;89.93
56737;BME280;42618;51.226;4.910;2023-07-31T09:26:58;49657.22;;;-146.94;89.23
56737;BME280;42618;51.226;4.910;2023-07-31T09:29:26;49653.25;;;-146.94;89.42
56737;BME280;42618;51.226;4.910;2023-07-31T09:31:54;49651.25;;;-146.94;88.32
56737;BME280;42618;51.226;4.910;2023-07-31T09:34:29;49683.16;;;-146.94;88.27
56737;BME280;42618;51.226;4.910;2023-07-31T09:36:59;49697.09;;;-146.94;89.48
56737;BME280;42618;51.226;4.910;2023-07-31T09:39:29;49673.19;;;-146.94;87.82
56737;BME280;42618;51.226;4.910;2023-07-31T09:41:56;49635.31;;;-146.94;89.34
56737;BME280;42618;51.226;4.910;2023-07-31T09:44:40;49691.13;;;-146.94;89.62
56737;BME280;42618;51.226;4.910;2023-07-31T09:47:21;49659.22;;;-146.94;89.18
56737;BME280;42618;51.226;4.910;2023-07-31T09:49:51;49651.25;;;-146.94;87.87
56737;BME280;42618;51.226;4.910;2023-07-31T09:52:17;49647.25;;;-146.94;89.20
56737;BME280;42618;51.226;4.910;2023-07-31T09:54:44;49661.22;;;-146.94;88.29
56737;BME280;42618;51.226;4.910;2023-07-31T09:57:11;49651.25;;;-146.94;89.12
56737;BME280;42618;51.226;4.910;2023-07-31T09:59:38;49681.16;;;-146.94;89.82
56737;BME280;42618;51.226;4.910;2023-07-31T10:02:09;49631.31;;;-146.94;90.28
56737;BME280;42618;51.226;4.910;2023-07-31T10:04:42;49693.13;;;-146.94;90.74
56737;BME280;42618;51.226;4.910;2023-07-31T10:07:13;49661.22;;;-146.94;91.06
56737;BME280;42618;51.226;4.910;2023-07-31T10:09:44;49659.22;;;-146.94;91.08
56737;BME280;42618;51.226;4.910;2023-07-31T10:12:13;49641.28;;;-146.94;89.95
56737;BME280;42618;51.226;4.910;2023-07-31T10:14:41;49651.25;;;-146.94;89.69
56737;BME280;42618;51.226;4.910;2023-07-31T10:17:08;49703.09;;;-146.94;90.55
56737;BME280;42618;51.226;4.910;2023-07-31T10:19:36;49669.19;;;-146.94;90.73
56737;BME280;42618;51.226;4.910;2023-07-31T10:22:03;49693.13;;;-146.94;90.28
56737;BME280;42618;51.226;4.910;2023-07-31T10:24:30;49631.31;;;-146.94;89.67
56737;BME280;42618;51.226;4.910;2023-07-31T10:27:00;49667.19;;;-146.94;90.54
56737;BME280;42618;51.226;4.910;2023-07-31T10:29:28;49635.31;;;-146.94;90.86
56737;BME280;42618;51.226;4.910;2023-07-31T10:31:58;49645.28;;;-146.94;90.01
56737;BME280;42618;51.226;4.910;2023-07-31T10:34:26;49651.25;;;-146.94;89.87
56737;BME280;42618;51.226;4.910;2023-07-31T10:37:28;49655.25;;;-146.94;89.20
56737;BME280;42618;51.226;4.910;2023-07-31T10:40:11;49661.22;;;-146.94;89.08
56737;BME280;42618;51.226;4.910;2023-07-31T10:42:55;49637.28;;;-146.94;88.92
56737;BME280;42618;51.226;4.910;2023-07-31T10:48:01;49691.13;;;-146.94;89.07
56737;BME280;42618;51.226;4.910;2023-07-31T10:50:30;49665.22;;;-146.94;88.63
56737;BME280;42618;51.226;4.910;2023-07-31T10:52:59;49647.25;;;-146.94;89.20
56737;BME280;42618;51.226;4.910;2023-07-31T10:55:33;49657.22;;;-146.94;89.55
56737;BME280;42618;51.226;4.910;2023-07-31T10:58:11;49627.31;;;-146.94;91.48
56737;BME280;42618;51.226;4.910;2023-07-31T11:00:42;49645.28;;;-146.94;91.56
56737;BME280;42618;51.226;4.910;2023-07-31T11:03:12;49663.22;;;-146.94;92.88
56737;BME280;42618;51.226;4.910;2023-07-31T11:08:26;49655.25;;;-146.94;94.14
56737;BME280;42618;51.226;4.910;2023-07-31T11:13:30;49677.16;;;-146.94;93.35
56737;BME280;42618;51.226;4.910;2023-07-31T11:15:57;49671.19;;;-146.94;92.82
56737;BME280;42618;51.226;4.910;2023-07-31T11:18:26;49671.19;;;-146.94;92.35
56737;BME280;42618;51.226;4.910;2023-07-31T11:20:53;49655.25;;;-146.94;93.37
56737;BME280;42618;51.226;4.910;2023-07-31T11:23:21;49675.19;;;-146.94;92.47
56737;BME280;42618;51.226;4.910;2023-07-31T11:25:49;49643.28;;;-146.94;90.81
56737;BME280;42618;51.226;4.910;2023-07-31T11:28:18;49643.28;;;-146.94;90.32
56737;BME280;42618;51.226;4.910;2023-07-31T11:30:46;49635.31;;;-146.94;89.64
56737;BME280;42618;51.226;4.910;2023-07-31T11:33:13;49637.28;;;-146.94;89.01
56737;BME280;42618;51.226;4.910;2023-07-31T11:35:48;49655.25;;;-146.94;87.88
56737;BME280;42618;51.226;4.910;2023-07-31T11:38:27;49639.28;;;-146.94;89.18
56737;BME280;42618;51.226;4.910;2023-07-31T11:41:00;49649.25;;;-146.94;88.44
56737;BME280;42618;51.226;4.910;2023-07-31T11:43:27;49661.22;;;-146.94;88.36
56737;BME280;42618;51.226;4.910;2023-07-31T11:45:59;49607.41;;;-146.94;87.72
56737;BME280;42618;51.226;4.910;2023-07-31T11:48:32;49639.28;;;-146.94;87.82
56737;BME280;42618;51.226;4.910;2023-07-31T11:51:04;49647.25;;;-146.94;88.56
56737;BME280;42618;51.226;4.910;2023-07-31T11:53:36;49665.22;;;-146.94;89.29
56737;BME280;42618;51.226;4.910;2023-07-31T11:56:06;49621.34;;;-146.94;89.00
56737;BME280;42618;51.226;4.910;2023-07-31T11:58:34;49659.22;;;-146.94;88.60
56737;BME280;42618;51.226;4.910;2023-07-31T12:01:02;49659.22;;;-146.94;87.26
56737;BME280;42618;51.226;4.910;2023-07-31T12:03:29;49655.25;;;-146.94;87.30
56737;BME280;42618;51.226;4.910;2023-07-31T12:05:56;49659.22;;;-146.94;86.89
56737;BME280;42618;51.226;4.910;2023-07-31T12:08:24;49651.25;;;-146.94;87.26
56737;BME280;42618;51.226;4.910;2023-07-31T12:10:52;49641.28;;;-146.94;87.85
56737;BME280;42618;51.226;4.910;2023-07-31T12:13:24;49655.25;;;-146.94;87.21
56737;BME280;42618;51.226;4.910;2023-07-31T12:15:55;49657.22;;;-146.94;86.97
56737;BME280;42618;51.226;4.910;2023-07-31T12:18:25;49653.25;;;-146.94;86.49
56737;BME280;42618;51.226;4.910;2023-07-31T12:21:00;49645.28;;;-146.94;86.51
56737;BME280;42618;51.226;4.910;2023-07-31T12:23:29;49637.28;;;-146.94;84.47
56737;BME280;42618;51.226;4.910;2023-07-31T12:28:37;49665.22;;;-146.94;84.52
56737;BME280;42618;51.226;4.910;2023-07-31T12:31:09;49627.31;;;-146.94;84.94
56737;BME280;42618;51.226;4.910;2023-07-31T12:33:37;49691.13;;;-146.94;85.48
56737;BME280;42618;51.226;4.910;2023-07-31T12:36:10;49641.28;;;-146.94;85.84
56737;BME280;42618;51.226;4.910;2023-07-31T12:38:37;49639.28;;;-146.94;85.66
56737;BME280;42618;51.226;4.910;2023-07-31T12:41:04;49617.38;;;-146.94;84.33
56737;BME280;42618;51.226;4.910;2023-07-31T12:43:37;49657.22;;;-146.94;85.33
56737;BME280;42618;51.226;4.910;2023-07-31T12:46:04;49663.22;;;-146.94;85.96
56737;BME280;42618;51.226;4.910;2023-07-31T12:48:32;49659.22;;;-146.94;85.36
56737;BME280;42618;51.226;4.910;2023-07-31T12:50:59;49645.28;;;-146.94;84.44
56737;BME280;42618;51.226;4.910;2023-07-31T12:53:25;49657.22;;;-146.94;84.61
56737;BME280;42618;51.226;4.910;2023-07-31T12:55:52;49643.28;;;-146.94;84.70